Time;durP1;ratioP1;P1;durP2;ratioP2;P2;SDS_P1;SDS_P2;PMS_P1;PMS_P2;Temp;Humidity;BMP_temperature;BMP_pressure;BME280_temperature;BME280_humidity;BME280_pressure;Samples;Min_cycle;Max_cycle;Signal;HPM_P1;HPM_P2
2022/05/28 00:00:59;;;;;;;5.72;3.83;;;;;;;8.20;79.98;98300.38;5038390;28;20148;-78
2022/05/28 00:03:28;;;;;;;6.97;4.07;;;;;;;8.30;80.21;98319.34;5017329;28;20462;-76
2022/05/28 00:05:56;;;;;;;6.82;4.15;;;;;;;8.29;79.96;98308.97;5043120;28;20057;-76
2022/05/28 00:08:24;;;;;;;10.50;4.40;;;;;;;8.34;80.49;98301.94;5043150;28;20056;-76
2022/05/28 00:10:55;;;;;;;10.75;4.82;;;;;;;8.31;79.82;98291.59;5043839;28;20125;-76
2022/05/28 00:13:23;;;;;;;14.57;6.45;;;;;;;8.28;80.00;98292.50;5015236;28;20144;-77
2022/05/28 00:15:51;;;;;;;39.28;18.20;;;;;;;8.31;79.86;98292.44;5033969;28;20144;-77
2022/05/28 00:18:18;;;;;;;33.72;14.63;;;;;;;8.24;80.05;98274.31;5032857;28;20145;-77
2022/05/28 00:20:45;;;;;;;27.88;12.52;;;;;;;8.24;80.09;98276.91;5014833;28;20093;-77
2022/05/28 00:23:13;;;;;;;22.98;10.75;;;;;;;8.33;80.02;98293.28;5032322;28;20049;-77
2022/05/28 00:25:41;;;;;;;24.50;12.15;;;;;;;8.28;79.60;98270.81;5030841;28;20084;-77
2022/05/28 00:28:08;;;;;;;28.30;14.05;;;;;;;8.24;79.89;98283.00;5032624;28;20141;-77
2022/05/28 00:30:35;;;;;;;34.95;16.77;;;;;;;8.25;80.04;98276.06;5032354;28;20058;-78
2022/05/28 00:33:02;;;;;;;20.08;9.65;;;;;;;8.18;80.01;98273.53;5032224;28;20053;-77
2022/05/28 00:35:29;;;;;;;12.30;6.85;;;;;;;8.14;80.07;98276.19;5031687;28;20050;-79
2022/05/28 00:37:57;;;;;;;14.93;6.38;;;;;;;8.08;80.52;98255.44;5032949;28;20131;-77
2022/05/28 00:40:27;;;;;;;14.35;6.93;;;;;;;8.07;80.45;98257.19;5032529;28;20658;-78
2022/05/28 00:43:05;;;;;;;16.65;7.85;;;;;;;8.06;80.43;98270.22;5034119;28;20507;-75
2022/05/28 00:45:33;;;;;;;15.90;6.95;;;;;;;8.06;80.26;98260.66;5033510;28;20058;-77
2022/05/28 00:48:03;;;;;;;15.88;8.70;;;;;;;8.04;80.14;98262.41;5015406;28;20108;-79
2022/05/28 00:50:33;;;;;;;16.13;9.00;;;;;;;8.13;80.29;98256.25;5011981;28;20054;-78
2022/05/28 00:53:01;;;;;;;21.05;9.55;;;;;;;8.23;79.91;98275.22;5011655;28;20096;-77
2022/05/28 00:55:32;;;;;;;16.05;8.43;;;;;;;8.14;79.69;98243.22;5012145;28;20053;-77
2022/05/28 00:58:03;;;;;;;13.27;7.30;;;;;;;8.26;79.94;98265.63;5011753;28;20077;-78
2022/05/28 01:00:33;;;;;;;10.88;6.45;;;;;;;8.33;79.79;98276.81;5012921;28;20492;-78
2022/05/28 01:03:15;;;;;;;11.27;6.15;;;;;;;8.34;79.88;98268.13;4995537;28;20088;-78
2022/05/28 01:06:06;;;;;;;9.77;5.80;;;;;;;8.37;79.82;98255.94;5012607;28;20054;-78
2022/05/28 01:08:57;;;;;;;8.52;6.30;;;;;;;8.44;78.99;98263.72;5012527;28;20049;-78
2022/05/28 01:11:32;;;;;;;9.20;5.40;;;;;;;8.48;79.35;98257.59;5012618;28;20054;-76
2022/05/28 01:14:23;;;;;;;10.73;5.93;;;;;;;8.54;78.57;98247.06;5012251;28;20060;-77
2022/05/28 01:17:20;;;;;;;9.23;5.60;;;;;;;8.64;78.81;98243.44;5013113;28;20088;-77
2022/05/28 01:19:47;;;;;;;9.63;6.00;;;;;;;8.76;78.59;98237.22;5012096;28;20420;-78
2022/05/28 01:22:26;;;;;;;13.73;5.85;;;;;;;8.87;77.71;98229.25;5012552;28;20104;-79
2022/05/28 01:25:22;;;;;;;9.68;5.60;;;;;;;8.90;77.16;98224.81;5012078;28;20069;-78
2022/05/28 01:27:57;;;;;;;13.20;6.15;;;;;;;8.87;77.06;98204.06;5011974;28;20104;-79
2022/05/28 01:30:24;;;;;;;11.55;5.95;;;;;;;9.06;76.96;98222.84;5012971;28;20096;-78
2022/05/28 01:32:54;;;;;;;11.50;5.93;;;;;;;9.21;76.82;98234.75;4994771;28;20088;-77
2022/05/28 01:35:23;;;;;;;10.35;6.10;;;;;;;9.22;76.10;98219.06;5012770;28;20072;-78
2022/05/28 01:37:51;;;;;;;11.15;6.38;;;;;;;9.28;76.79;98235.50;5012389;28;20467;-77
2022/05/28 01:40:21;;;;;;;9.43;5.85;;;;;;;9.28;76.27;98222.47;5012521;28;20093;-77
2022/05/28 01:42:52;;;;;;;12.52;6.70;;;;;;;9.27;75.57;98229.44;5011477;28;20532;-78
2022/05/28 01:45:22;;;;;;;10.73;6.13;;;;;;;9.18;76.07;98196.59;4994530;28;20440;-78
2022/05/28 01:47:51;;;;;;;10.50;6.05;;;;;;;9.45;75.23;98211.75;5026160;28;20053;-77
2022/05/28 01:50:22;;;;;;;10.90;6.20;;;;;;;9.71;74.82;98222.53;5032471;28;20057;-77
2022/05/28 01:52:51;;;;;;;9.95;5.75;;;;;;;9.93;73.82;98220.38;5013870;28;20060;-78
2022/05/28 01:55:21;;;;;;;;;;;;;;;9.98;74.46;98210.72;5032641;28;20064;-78
2022/05/28 01:57:48;;;;;;;10.57;5.85;;;;;;;10.31;72.72;98218.75;5032311;28;19924;-79
2022/05/28 02:00:15;;;;;;;9.85;5.07;;;;;;;10.42;72.42;98208.91;5032824;28;20053;-78
2022/05/28 02:02:43;;;;;;;9.07;5.32;;;;;;;10.48;71.78;98207.94;5014436;28;20053;-78
2022/05/28 02:05:12;;;;;;;9.83;5.10;;;;;;;10.58;71.95;98212.06;5030851;28;20057;-77
2022/05/28 02:07:39;;;;;;;10.43;4.95;;;;;;;10.94;70.90;98190.31;5030336;28;20057;-78
2022/05/28 02:10:13;;;;;;;9.25;5.20;;;;;;;11.51;69.34;98196.69;5029747;28;20429;-78
2022/05/28 02:13:11;;;;;;;9.60;4.80;;;;;;;13.19;64.45;98177.66;5031339;28;20049;-78
2022/05/28 02:15:44;;;;;;;6.53;4.40;;;;;;;15.81;56.30;98183.28;5012416;28;20143;-78
2022/05/28 02:18:42;;;;;;;8.90;4.55;;;;;;;15.09;56.83;98184.56;5012738;28;20049;-76
2022/05/28 02:21:19;;;;;;;9.30;5.07;;;;;;;13.41;61.33;98195.31;5031183;28;20057;-79
2022/05/28 02:23:59;;;;;;;6.00;4.38;;;;;;;12.33;64.47;98161.25;4978218;28;20144;-78
2022/05/28 02:26:47;;;;;;;9.63;4.65;;;;;;;12.12;65.44;98179.28;4993392;28;20058;-78
2022/05/28 02:29:15;;;;;;;8.50;4.50;;;;;;;11.94;65.97;98180.69;5011929;28;20129;-78
2022/05/28 02:31:47;;;;;;;9.35;4.45;;;;;;;11.77;66.77;98181.16;5011872;28;20088;-78
2022/05/28 02:34:16;;;;;;;9.40;4.70;;;;;;;11.64;66.84;98172.78;5011466;28;20512;-78
2022/05/28 02:36:43;;;;;;;7.70;4.43;;;;;;;11.34;67.31;98155.34;5012471;28;20108;-79
2022/05/28 02:39:11;;;;;;;10.35;4.90;;;;;;;11.33;67.41;98177.13;5011795;28;20058;-80
2022/05/28 02:41:38;;;;;;;10.38;4.70;;;;;;;11.17;68.62;98189.75;5011484;28;20054;-79
2022/05/28 02:44:05;;;;;;;11.38;5.15;;;;;;;11.02;69.04;98172.69;5011115;28;20054;-78
2022/05/28 02:46:32;;;;;;;11.65;5.88;;;;;;;10.84;68.66;98171.38;5014710;28;20087;-79
2022/05/28 02:48:59;;;;;;;12.18;4.95;;;;;;;10.88;69.50;98186.09;5013102;28;20053;-78
2022/05/28 02:51:27;;;;;;;10.70;4.93;;;;;;;10.89;69.64;98176.53;5030109;28;20053;-77
2022/05/28 02:53:54;;;;;;;11.23;5.40;;;;;;;10.99;69.06;98171.03;5031341;28;20111;-77
2022/05/28 02:56:22;;;;;;;12.75;5.43;;;;;;;11.06;69.05;98171.72;5030323;28;20060;-78
2022/05/28 02:58:50;;;;;;;10.40;5.30;;;;;;;10.99;68.76;98157.09;5031783;28;20577;-77
2022/05/28 03:01:19;;;;;;;11.82;5.97;;;;;;;11.11;69.21;98188.13;5031190;28;20493;-78
2022/05/28 03:03:47;;;;;;;9.63;5.38;;;;;;;11.06;68.90;98184.78;5031583;28;20050;-77
2022/05/28 03:06:14;;;;;;;9.93;5.18;;;;;;;11.01;69.04;98186.66;5013221;28;20069;-77
2022/05/28 03:08:42;;;;;;;10.63;5.97;;;;;;;11.06;69.29;98190.03;5030325;28;20058;-78
2022/05/28 03:11:09;;;;;;;11.18;5.00;;;;;;;11.15;68.97;98178.47;5031583;28;20053;-78
2022/05/28 03:13:37;;;;;;;13.23;4.95;;;;;;;11.15;68.86;98168.88;5031029;28;20057;-76
2022/05/28 03:16:04;;;;;;;12.60;5.32;;;;;;;11.15;68.68;98183.69;5030770;28;20065;-79
2022/05/28 03:18:31;;;;;;;9.55;5.32;;;;;;;11.17;69.04;98171.47;5031942;28;20057;-76
2022/05/28 03:20:58;;;;;;;14.20;5.05;;;;;;;11.11;69.27;98167.22;5032916;28;20053;-78
2022/05/28 03:23:25;;;;;;;11.40;5.07;;;;;;;11.15;69.30;98168.03;5013176;28;20054;-77
2022/05/28 03:25:52;;;;;;;13.50;5.65;;;;;;;11.08;69.32;98162.09;5029943;28;20423;-80
2022/05/28 03:28:19;;;;;;;10.88;5.45;;;;;;;11.22;69.22;98172.19;5030397;28;20472;-78
2022/05/28 03:30:47;;;;;;;10.63;5.40;;;;;;;11.35;68.61;98170.94;5032206;28;20056;-78
2022/05/28 03:33:14;;;;;;;10.23;5.40;;;;;;;11.31;68.47;98151.00;5033447;28;20050;-77
2022/05/28 03:35:41;;;;;;;12.90;5.65;;;;;;;11.34;68.79;98166.63;5032896;28;20469;-77
2022/05/28 03:38:08;;;;;;;10.32;5.25;;;;;;;11.25;69.06;98154.66;5034801;28;20056;-76
2022/05/28 03:40:36;;;;;;;11.35;5.78;;;;;;;11.25;68.82;98157.28;5016638;28;20114;-77
2022/05/28 03:43:06;;;;;;;8.70;5.35;;;;;;;11.26;68.78;98164.22;5039770;28;20049;-78
2022/05/28 03:45:34;;;;;;;10.43;5.43;;;;;;;11.18;69.50;98145.25;5042689;28;20076;-78
2022/05/28 03:48:05;;;;;;;13.82;5.40;;;;;;;11.15;69.10;98153.19;5028564;28;20528;-76
2022/05/28 03:50:32;;;;;;;7.90;4.85;;;;;;;11.09;69.50;98144.66;5017984;28;20571;-76
2022/05/28 03:53:00;;;;;;;10.25;5.22;;;;;;;11.10;69.99;98151.59;5012923;28;20049;-78
2022/05/28 03:55:28;;;;;;;11.63;4.95;;;;;;;11.14;69.75;98151.50;5012151;28;20156;-78
2022/05/28 03:57:54;;;;;;;10.18;5.35;;;;;;;11.06;69.72;98137.75;5013531;28;20093;-76
2022/05/28 04:00:22;;;;;;;15.88;6.10;;;;;;;11.08;69.81;98146.41;5012533;28;20058;-78
2022/05/28 04:02:49;;;;;;;10.65;5.25;;;;;;;11.11;70.54;98143.72;5013276;28;20462;-79
2022/05/28 04:05:18;;;;;;;10.90;5.40;;;;;;;11.09;70.06;98139.44;5013616;28;20092;-79
2022/05/28 04:07:45;;;;;;;8.48;5.20;;;;;;;11.19;70.26;98147.00;4979086;28;20050;-78
2022/05/28 04:10:12;;;;;;;16.70;5.15;;;;;;;11.20;70.25;98142.63;5012488;28;20049;-78
2022/05/28 04:12:39;;;;;;;9.23;5.03;;;;;;;11.13;70.30;98126.25;5013491;28;20373;-76
2022/05/28 04:15:07;;;;;;;10.70;5.35;;;;;;;11.28;70.12;98141.50;5012130;28;20057;-78
2022/05/28 04:17:34;;;;;;;9.35;5.32;;;;;;;11.34;70.15;98135.25;4995081;28;20400;-78
2022/05/28 04:20:01;;;;;;;13.27;6.18;;;;;;;11.31;70.21;98129.25;5012740;28;20058;-75
2022/05/28 04:22:29;;;;;;;7.00;4.85;;;;;;;11.39;70.05;98122.06;5013116;28;20053;-76
2022/05/28 04:24:56;;;;;;;9.10;4.90;;;;;;;11.42;70.14;98116.75;5013474;28;20060;-76
2022/05/28 04:27:23;;;;;;;11.05;5.00;;;;;;;11.42;70.44;98114.13;5023487;28;20081;-76
2022/05/28 04:29:50;;;;;;;10.77;5.07;;;;;;;11.48;70.24;98117.41;5015706;28;20064;-76
2022/05/28 04:32:18;;;;;;;10.93;4.95;;;;;;;11.54;70.33;98115.56;5013816;28;20567;-77
2022/05/28 04:34:47;;;;;;;7.05;4.57;;;;;;;11.64;70.05;98122.25;5014669;28;20061;-77
2022/05/28 04:37:15;;;;;;;8.32;4.50;;;;;;;11.78;69.80;98116.59;5014815;28;20061;-77
2022/05/28 04:39:45;;;;;;;8.55;5.00;;;;;;;11.79;69.64;98093.03;5014374;28;20420;-76
2022/05/28 04:42:13;;;;;;;8.85;4.50;;;;;;;12.03;69.25;98098.44;5013845;28;20065;-76
2022/05/28 04:44:41;;;;;;;9.38;4.82;;;;;;;12.07;69.03;98084.38;5014580;28;20062;-77
2022/05/28 04:47:13;;;;;;;9.10;4.72;;;;;;;12.15;68.70;98098.06;5014527;28;20046;-76
2022/05/28 04:49:41;;;;;;;9.68;4.75;;;;;;;12.15;68.92;98098.06;5014537;28;20149;-77
2022/05/28 04:52:08;;;;;;;10.55;5.68;;;;;;;12.18;69.11;98115.44;5014478;28;20046;-76
2022/05/28 04:54:36;;;;;;;8.70;4.70;;;;;;;12.19;69.08;98109.28;5014195;28;20054;-77
2022/05/28 04:57:05;;;;;;;10.15;5.10;;;;;;;12.19;69.18;98101.44;5023235;28;20085;-78
2022/05/28 04:59:32;;;;;;;7.97;4.60;;;;;;;12.27;69.30;98099.44;5035651;28;20084;-77
2022/05/28 05:02:00;;;;;;;8.85;4.60;;;;;;;12.36;68.71;98086.06;5027177;28;20053;-77
2022/05/28 05:04:27;;;;;;;9.27;4.57;;;;;;;12.81;67.72;98116.88;5000655;28;20082;-77
2022/05/28 05:06:56;;;;;;;8.57;4.50;;;;;;;12.81;67.58;98103.78;5018510;28;20154;-76
2022/05/28 05:09:24;;;;;;;7.53;4.18;;;;;;;13.02;66.89;98103.97;4996718;28;20050;-77
2022/05/28 05:11:52;;;;;;;9.10;4.60;;;;;;;13.19;66.71;98101.63;4996832;28;20081;-78
2022/05/28 05:14:20;;;;;;;12.18;5.20;;;;;;;13.14;66.31;98081.72;5013265;28;20054;-77
2022/05/28 05:16:48;;;;;;;7.53;4.00;;;;;;;13.25;66.33;98106.66;5003309;28;20061;-78
2022/05/28 05:19:15;;;;;;;7.60;3.67;;;;;;;13.07;65.90;98073.22;5024055;28;20049;-77
2022/05/28 05:21:42;;;;;;;11.57;4.57;;;;;;;13.09;66.29;98108.94;5033231;28;20427;-78
2022/05/28 05:24:09;;;;;;;12.20;4.40;;;;;;;13.04;66.57;98097.78;5033650;28;20463;-77
2022/05/28 05:26:36;;;;;;;6.05;3.78;;;;;;;13.16;65.70;98101.72;5015909;28;20054;-78
2022/05/28 05:29:03;;;;;;;6.70;3.80;;;;;;;13.16;65.52;98095.63;5033794;28;20049;-78
2022/05/28 05:31:30;;;;;;;11.60;5.40;;;;;;;13.18;65.62;98089.41;4999769;28;20530;-77
2022/05/28 05:33:57;;;;;;;8.32;4.07;;;;;;;13.04;65.99;98086.44;5033816;28;20091;-77
2022/05/28 05:36:24;;;;;;;10.90;4.10;;;;;;;13.12;65.43;98094.91;5033411;28;20071;-77
2022/05/28 05:38:51;;;;;;;7.22;4.03;;;;;;;13.22;65.36;98098.88;5016045;28;20099;-77
2022/05/28 05:41:19;;;;;;;6.88;3.58;;;;;;;13.34;64.59;98104.66;5033561;28;20049;-79
2022/05/28 05:43:46;;;;;;;6.72;3.95;;;;;;;13.31;64.76;98093.38;5015499;28;20107;-77
2022/05/28 05:46:13;;;;;;;7.60;3.40;;;;;;;13.42;64.44;98108.72;5033292;28;20049;-77
2022/05/28 05:48:42;;;;;;;6.00;3.53;;;;;;;13.51;64.09;98115.38;5033034;28;20072;-79
2022/05/28 05:51:12;;;;;;;6.57;3.60;;;;;;;13.51;63.68;98078.66;5014815;28;20053;-78
2022/05/28 05:53:40;;;;;;;5.35;3.47;;;;;;;13.51;64.36;98108.38;5032807;28;20061;-77
2022/05/28 05:56:09;;;;;;;7.85;3.60;;;;;;;13.65;65.14;98104.38;5032493;28;20076;-77
2022/05/28 05:58:37;;;;;;;11.55;4.07;;;;;;;13.97;63.28;98091.81;5032905;28;20060;-76
2022/05/28 06:01:05;;;;;;;5.82;3.55;;;;;;;14.14;62.14;98111.25;5033335;28;20144;-78
2022/05/28 06:03:33;;;;;;;7.13;3.30;;;;;;;14.00;62.85;98102.19;5015368;28;20084;-77
2022/05/28 06:06:02;;;;;;;9.40;3.38;;;;;;;13.96;62.02;98104.09;5032921;28;20444;-76
2022/05/28 06:08:29;;;;;;;7.20;3.90;;;;;;;13.87;62.29;98104.41;5033316;28;20064;-79
2022/05/28 06:10:56;;;;;;;6.80;3.30;;;;;;;13.83;61.57;98090.59;5032887;28;20055;-78
2022/05/28 06:13:23;;;;;;;4.50;2.50;;;;;;;13.97;61.71;98100.53;5032721;28;20573;-79
2022/05/28 06:15:50;;;;;;;6.72;2.97;;;;;;;14.13;60.72;98092.91;5032773;28;20062;-77
2022/05/28 06:18:17;;;;;;;6.43;2.90;;;;;;;14.33;60.32;98095.63;5015076;28;20049;-78
2022/05/28 06:20:44;;;;;;;5.18;3.03;;;;;;;14.43;59.84;98085.63;5015005;28;20046;-77
2022/05/28 06:23:12;;;;;;;7.45;2.80;;;;;;;14.44;59.83;98073.31;5025507;28;20416;-80
2022/05/28 06:25:40;;;;;;;3.38;2.90;;;;;;;14.64;59.78;98107.53;5020412;28;20054;-77
2022/05/28 06:28:07;;;;;;;5.82;3.00;;;;;;;14.71;59.67;98102.88;5013915;28;20058;-77
2022/05/28 06:30:34;;;;;;;5.47;2.95;;;;;;;14.76;59.36;98100.94;4996065;28;20454;-78
2022/05/28 06:33:02;;;;;;;5.00;2.65;;;;;;;14.66;58.36;98063.66;4995138;28;20455;-78
2022/05/28 06:35:31;;;;;;;6.82;2.60;;;;;;;14.90;57.76;98084.56;5012845;28;20672;-78
2022/05/28 06:37:58;;;;;;;4.93;3.72;;;;;;;14.90;57.36;98103.81;4995371;28;20042;-77
2022/05/28 06:40:28;;;;;;;5.30;2.97;;;;;;;14.91;58.08;98104.69;5012749;28;20049;-82
2022/05/28 06:42:56;;;;;;;8.50;3.17;;;;;;;15.06;57.90;98111.09;4996378;28;20116;-78
2022/05/28 06:45:24;;;;;;;5.93;2.87;;;;;;;15.02;57.00;98099.00;5012852;28;20061;-79
2022/05/28 06:47:52;;;;;;;8.23;3.30;;;;;;;14.70;57.51;98111.69;5012714;28;20057;-79
2022/05/28 06:53:08;;;;;;;4.88;2.90;;;;;;;14.17;58.99;98093.66;5015132;28;20052;-80
2022/05/28 06:55:37;;;;;;;4.93;2.92;;;;;;;14.29;59.80;98111.56;5009023;28;20507;-79
2022/05/28 06:58:06;;;;;;;4.22;3.10;;;;;;;14.44;58.89;98110.94;5032460;28;20530;-80
2022/05/28 07:00:35;;;;;;;4.68;3.33;;;;;;;14.46;58.88;98106.50;4978679;28;20466;-80
2022/05/28 07:03:04;;;;;;;6.50;3.08;;;;;;;14.40;58.61;98121.66;5011471;28;20056;-80
2022/05/28 07:05:33;;;;;;;8.02;4.82;;;;;;;14.22;59.34;98081.19;5018446;28;20045;-79
2022/05/28 07:08:08;;;;;;;5.53;3.25;;;;;;;14.22;59.16;98108.34;5006044;28;20053;-81
2022/05/28 07:10:38;;;;;;;8.15;2.80;;;;;;;14.07;58.87;98094.03;4998758;28;20483;-80
2022/05/28 07:13:06;;;;;;;6.50;2.85;;;;;;;14.17;59.43;98112.88;5022541;28;20060;-78
2022/05/28 07:15:34;;;;;;;8.03;3.00;;;;;;;14.35;59.77;98119.22;5016732;28;20147;-80
2022/05/28 07:18:02;;;;;;;5.88;3.38;;;;;;;14.46;59.45;98124.88;5001176;28;20104;-79
2022/05/28 07:20:29;;;;;;;7.10;3.38;;;;;;;14.51;59.04;98125.53;5027371;28;20050;-80
2022/05/28 07:22:56;;;;;;;9.05;3.40;;;;;;;14.52;60.05;98132.53;5027951;28;20068;-78
2022/05/28 07:25:24;;;;;;;5.88;3.03;;;;;;;14.44;59.68;98131.13;5033240;28;20045;-79
2022/05/28 07:27:52;;;;;;;6.40;2.80;;;;;;;14.34;60.72;98144.59;5018859;28;20049;-79
2022/05/28 07:30:19;;;;;;;4.22;2.47;;;;;;;14.49;60.25;98142.28;5018845;28;20053;-78
2022/05/28 07:32:46;;;;;;;3.97;2.60;;;;;;;14.40;59.70;98143.50;5036028;28;20046;-81
2022/05/28 07:35:14;;;;;;;6.00;2.50;;;;;;;14.32;60.49;98132.44;5002195;28;20111;-82
2022/05/28 07:37:43;;;;;;;4.80;2.28;;;;;;;14.47;60.34;98149.38;5035904;28;20426;-79
2022/05/28 07:40:10;;;;;;;5.88;3.00;;;;;;;14.47;60.12;98154.63;5007716;28;20057;-78
2022/05/28 07:42:37;;;;;;;6.25;2.63;;;;;;;14.63;60.32;98141.78;5006773;28;20053;-81
2022/05/28 07:45:04;;;;;;;6.65;2.92;;;;;;;14.76;60.49;98152.66;5015004;28;20053;-83
2022/05/28 07:47:33;;;;;;;4.13;2.80;;;;;;;14.88;60.20;98155.59;5026218;28;20060;-81
2022/05/28 07:50:01;;;;;;;6.30;3.10;;;;;;;14.77;59.91;98125.44;5016893;28;20523;-80
2022/05/28 07:52:29;;;;;;;5.75;3.35;;;;;;;14.85;60.54;98152.28;5035608;28;20059;-81
2022/05/28 07:54:58;;;;;;;8.10;3.10;;;;;;;14.89;60.23;98161.75;5019026;28;20065;-81
2022/05/28 07:57:28;;;;;;;8.85;3.15;;;;;;;14.99;60.60;98167.47;5016252;28;20060;-80
2022/05/28 07:59:55;;;;;;;6.80;3.88;;;;;;;15.24;59.74;98157.63;5019008;28;20041;-79
2022/05/28 08:02:23;;;;;;;6.53;2.83;;;;;;;15.38;59.53;98156.16;5034106;28;20111;-80
2022/05/28 08:04:51;;;;;;;7.00;2.90;;;;;;;15.40;59.60;98154.31;5033626;28;20148;-80
2022/05/28 08:07:19;;;;;;;5.72;3.05;;;;;;;15.67;59.40;98168.91;5018797;28;20050;-80
2022/05/28 08:09:47;;;;;;;6.30;3.20;;;;;;;15.82;58.36;98166.56;4979160;28;20104;-78
2022/05/28 08:12:15;;;;;;;6.43;3.00;;;;;;;15.69;58.08;98167.06;5018207;28;20060;-79
2022/05/28 08:14:42;;;;;;;5.82;2.88;;;;;;;15.54;58.21;98188.81;5027143;28;20066;-77
2022/05/28 08:17:27;;;;;;;4.78;3.13;;;;;;;15.27;59.04;98165.41;5021472;28;20516;-82
2022/05/28 08:20:19;;;;;;;8.77;4.17;;;;;;;14.98;60.32;98182.38;5004885;28;20134;-81
2022/05/28 08:23:12;;;;;;;5.72;3.38;;;;;;;14.73;61.16;98180.78;4984509;28;20412;-81
2022/05/28 08:25:44;;;;;;;5.38;3.20;;;;;;;14.57;61.45;98184.91;5019698;28;20057;-78
2022/05/28 08:28:13;;;;;;;4.20;3.30;;;;;;;14.47;61.62;98197.50;4997769;28;20484;-82
2022/05/28 08:30:40;;;;;;;6.70;3.35;;;;;;;14.36;61.86;98202.31;5022190;28;20059;-81
2022/05/28 08:33:10;;;;;;;9.93;4.30;;;;;;;14.24;63.44;98213.28;4994856;28;20056;-81
2022/05/28 08:35:39;;;;;;;4.40;3.67;;;;;;;14.11;62.54;98212.88;5008223;28;20053;-78
2022/05/28 08:38:13;;;;;;;9.63;3.88;;;;;;;13.90;63.02;98193.56;4997111;28;20101;-79
2022/05/28 08:41:16;;;;;;;7.57;3.45;;;;;;;13.75;62.93;98215.13;5009631;28;20049;-79
2022/05/28 08:44:15;;;;;;;4.78;3.25;;;;;;;13.62;63.38;98225.19;5017124;28;20053;-78
2022/05/28 08:46:48;;;;;;;6.50;3.58;;;;;;;13.47;63.99;98227.41;4993811;28;20731;-79
2022/05/28 08:49:16;;;;;;;9.15;4.13;;;;;;;13.46;64.07;98219.59;5001187;28;20068;-81
2022/05/28 08:52:11;;;;;;;10.30;6.15;;;;;;;13.60;64.63;98243.59;5012088;28;20054;-79
2022/05/28 08:54:56;;;;;;;11.73;4.78;;;;;;;13.66;63.57;98253.03;5012000;28;20116;-79
2022/05/28 08:57:46;;;;;;;18.25;10.57;;;;;;;13.54;64.19;98245.56;5008767;28;20058;-81
2022/05/28 09:00:29;;;;;;;10.73;5.80;;;;;;;13.61;64.24;98244.44;5010840;28;20054;-80
2022/05/28 09:03:05;;;;;;;5.00;3.33;;;;;;;13.63;64.60;98250.50;5010185;28;20526;-81
2022/05/28 09:05:48;;;;;;;6.80;4.03;;;;;;;13.61;64.80;98255.78;5013415;28;20385;-79
2022/05/28 09:08:29;;;;;;;17.80;8.45;;;;;;;13.65;65.57;98261.81;5010309;28;20503;-78
2022/05/28 09:11:01;;;;;;;20.25;11.50;;;;;;;13.62;65.94;98227.81;4986073;28;20562;-82
2022/05/28 09:13:41;;;;;;;15.95;7.10;;;;;;;13.57;65.60;98217.44;5023366;28;20137;-82
2022/05/28 09:16:22;;;;;;;5.38;3.22;;;;;;;13.90;64.70;98261.81;5030463;28;20061;-80
2022/05/28 09:18:50;;;;;;;4.00;3.05;;;;;;;13.83;65.02;98274.28;5013407;28;20103;-80
2022/05/28 09:21:18;;;;;;;11.25;5.15;;;;;;;13.85;64.43;98269.84;5023363;28;20057;-80
2022/05/28 09:23:52;;;;;;;4.60;2.88;;;;;;;13.80;63.15;98244.66;5011244;28;20104;-80
2022/05/28 09:26:30;;;;;;;3.35;2.40;;;;;;;13.83;62.59;98279.53;4996205;28;20060;-80
2022/05/28 09:29:08;;;;;;;4.35;2.55;;;;;;;13.78;63.15;98280.59;5009701;28;20065;-80
2022/05/28 09:32:26;;;;;;;7.32;2.55;;;;;;;13.76;62.99;98280.66;5010588;28;20128;-80
2022/05/28 09:35:24;;;;;;;3.53;2.30;;;;;;;13.85;62.88;98279.47;4985834;28;20077;-79
2022/05/28 09:38:10;;;;;;;6.75;3.33;;;;;;;13.83;63.13;98276.91;5013059;28;20054;-81
2022/05/28 09:40:48;;;;;;;4.18;2.80;;;;;;;14.18;62.22;98268.69;4992758;28;20058;-82
2022/05/28 09:43:40;;;;;;;3.88;3.17;;;;;;;14.60;60.59;98278.53;5010132;28;20054;-79
2022/05/28 09:46:26;;;;;;;7.00;3.30;;;;;;;14.80;59.92;98268.13;4992204;28;20077;-79
2022/05/28 09:49:05;;;;;;;7.25;4.80;;;;;;;14.83;59.22;98265.34;5000850;28;20337;-78
2022/05/28 09:51:34;;;;;;;3.40;2.92;;;;;;;14.81;59.44;98269.81;5031877;28;20049;-78
2022/05/28 09:54:23;;;;;;;5.43;2.67;;;;;;;14.57;59.43;98276.88;5032137;28;20515;-78
2022/05/28 09:57:11;;;;;;;3.75;2.60;;;;;;;14.47;60.50;98281.56;5031112;28;20055;-79
2022/05/28 09:59:43;;;;;;;3.97;3.47;;;;;;;14.56;59.98;98290.91;5032222;28;20050;-78
2022/05/28 10:02:10;;;;;;;4.70;2.80;;;;;;;14.62;60.11;98285.44;5031486;28;20053;-80
2022/05/28 10:04:57;;;;;;;3.58;2.70;;;;;;;14.74;58.58;98289.38;5031365;28;20715;-79
2022/05/28 10:07:33;;;;;;;3.80;2.50;;;;;;;14.68;58.09;98292.22;5030611;28;20059;-82
2022/05/28 10:10:11;;;;;;;4.68;2.70;;;;;;;14.67;58.36;98296.66;5031621;28;20069;-78
2022/05/28 10:12:39;;;;;;;4.32;3.30;;;;;;;14.71;57.67;98306.13;5013921;28;20427;-77
2022/05/28 10:15:14;;;;;;;6.78;3.78;;;;;;;14.59;57.63;98295.22;5001040;28;20111;-79
2022/05/28 10:17:52;;;;;;;7.47;3.92;;;;;;;14.92;57.35;98328.06;5034124;28;20423;-78
2022/05/28 10:20:21;;;;;;;8.43;3.28;;;;;;;15.14;57.45;98337.75;5015916;28;20057;-81
2022/05/28 10:22:54;;;;;;;7.68;3.20;;;;;;;15.17;57.62;98340.28;5012382;28;20538;-83
2022/05/28 10:25:37;;;;;;;14.52;7.43;;;;;;;15.35;57.38;98344.78;5029268;28;20104;-82
2022/05/28 10:28:11;;;;;;;;;;;;;;;15.20;58.36;98352.44;4997075;28;20140;-78
2022/05/28 10:30:42;;;;;;;8.98;4.50;;;;;;;15.26;57.69;98349.59;5030147;28;19925;-82
2022/05/28 10:33:21;;;;;;;6.20;4.25;;;;;;;14.91;58.16;98339.53;5013233;28;20471;-78
2022/05/28 10:35:49;;;;;;;6.57;4.50;;;;;;;15.06;58.46;98355.63;5030682;28;20045;-78
2022/05/28 10:38:26;;;;;;;7.90;4.45;;;;;;;15.23;58.20;98355.84;5030397;28;20464;-79
2022/05/28 10:41:02;;;;;;;7.35;4.53;;;;;;;15.28;58.43;98351.22;5030480;28;20060;-79
2022/05/28 10:43:38;;;;;;;8.05;4.75;;;;;;;15.43;58.17;98365.56;4996555;28;20447;-79
2022/05/28 10:46:12;;;;;;;9.38;4.95;;;;;;;15.47;58.01;98364.50;4997189;28;20054;-79
2022/05/28 10:49:18;;;;;;;8.90;4.57;;;;;;;15.38;58.60;98369.28;5017470;28;20052;-77
2022/05/28 10:52:17;;;;;;;9.30;5.72;;;;;;;15.54;58.51;98368.59;5015642;28;20486;-79
2022/05/28 10:55:17;;;;;;;7.05;4.47;;;;;;;15.94;57.44;98374.03;5008893;28;20141;-77
2022/05/28 10:58:15;;;;;;;6.63;4.72;;;;;;;16.49;56.09;98365.53;5016690;28;20050;-80
2022/05/28 11:00:55;;;;;;;12.20;5.22;;;;;;;16.68;55.33;98373.47;5010218;28;20050;-77
2022/05/28 11:03:57;;;;;;;7.45;5.40;;;;;;;16.74;54.89;98366.13;5006164;28;20053;-78
2022/05/28 11:06:28;;;;;;;7.40;4.10;;;;;;;16.63;54.77;98375.44;5039832;28;20081;-78
2022/05/28 11:09:09;;;;;;;7.47;4.90;;;;;;;16.53;54.80;98375.00;5040924;28;20103;-80
2022/05/28 11:12:02;;;;;;;6.20;4.28;;;;;;;16.38;54.87;98381.81;5012953;28;20049;-81
2022/05/28 11:18:11;;;;;;;3.70;2.67;;;;;;;16.50;53.20;98375.16;4974845;28;20061;-81
2022/05/28 11:20:53;;;;;;;5.60;2.53;;;;;;;16.78;51.87;98383.53;5012669;28;20053;-81
2022/05/28 11:23:30;;;;;;;5.25;2.70;;;;;;;16.86;51.88;98377.06;5028800;28;20535;-79
2022/05/28 11:26:36;;;;;;;9.57;5.07;;;;;;;17.02;51.68;98377.25;5011336;28;20054;-78
2022/05/28 11:29:12;;;;;;;9.65;5.80;;;;;;;17.55;51.15;98382.59;4991879;28;20050;-81
2022/05/28 11:31:44;;;;;;;4.43;3.08;;;;;;;17.67;50.02;98381.13;5010935;28;20107;-79
2022/05/28 11:34:30;;;;;;;4.10;2.53;;;;;;;17.73;49.91;98380.00;4994102;28;20427;-81
2022/05/28 11:37:05;;;;;;;4.57;2.88;;;;;;;17.60;49.80;98398.22;5011342;28;20045;-78
2022/05/28 11:40:05;;;;;;;5.90;2.78;;;;;;;17.44;50.29;98382.25;5010097;28;20116;-80
2022/05/28 11:42:55;;;;;;;4.72;2.97;;;;;;;17.23;51.39;98385.91;4986162;28;20060;-81
2022/05/28 11:45:54;;;;;;;5.38;3.17;;;;;;;17.32;51.24;98359.94;4993318;28;20064;-78
2022/05/28 11:51:58;;;;;;;5.95;2.90;;;;;;;17.07;51.29;98381.34;5013316;28;20473;-78
2022/05/28 11:54:36;;;;;;;7.40;3.20;;;;;;;16.91;52.03;98401.47;5033419;28;20148;-79
2022/05/28 11:57:20;;;;;;;7.20;3.88;;;;;;;16.70;52.54;98388.28;5034509;28;20089;-82
2022/05/28 11:59:52;;;;;;;7.53;3.30;;;;;;;16.51;53.20;98380.34;5015740;28;20061;-80
2022/05/28 12:02:27;;;;;;;5.05;2.97;;;;;;;16.63;53.03;98386.84;4999328;28;20049;-80
2022/05/28 12:04:56;;;;;;;7.50;3.40;;;;;;;16.74;52.18;98379.31;5018325;28;20045;-80
2022/05/28 12:07:34;;;;;;;6.82;2.60;;;;;;;16.84;51.24;98389.47;5028327;28;20066;-81